Floresville, TX

9:45 PM CDT on May 04, 2015 (GMT -0500)
Stinson Municipal | | Change Station
CLOSE
Current Station
Airport
Location: San Antonio Stinson,
Elevation: 574 ft
Nearby Weather Stations

Elev 574 ft 29.34 °N, 98.47 °W | Updated 52 minutes ago

Clear
Clear
74 °F
Feels Like 74 °F
N
16
Wind Variable Wind from SE

Today
High -- | Low -- °F
--% Chance of Precip.
Yesterday
High -- | Low -- °F
Precip. -- in
6:48 AM 8:10 PM
Full, 99% visible
Pressure 29.95 in
Visibility 9.0 miles
Clouds Clear
Dew Point 62 °F
Humidity 66%
Rainfall 0.00 in
Snow Depth Not available.
UV 0 out of 12
Pollen 6.50 out of 12
Air Quality Not available.
Flu Activity Sporadic
METAR KSSF 050153Z 13014KT 9SM CLR 23/17 A2997 RMK AO2 SLP140 T02330167

More Conditions Fewer Conditions

Pressure 29.95 in
Visibility 9.0 miles
Clouds Clear
Dew Point 62 °F
Humidity 66%
Rainfall 0.00 in
Snow Depth Not available.
UV 0 out of 12
Pollen 6.50 out of 12
Air Quality Not available.
Flu Activity Sporadic
METAR KSSF 050153Z 13014KT 9SM CLR 23/17 A2997 RMK AO2 SLP140 T02330167

More Conditions Fewer Conditions

Nepal has a long way to go to dig out and rebuild from a devastating earthquake. We have teamed up with several charities and organizations to make contributing to the relief effort as easy as possible.
How you can help: Portlight Strategies | Red Cross

10-Day Weather Forecast

Almanac

Astronomy

May. 04, 2015 Rise Set
Actual Time
Civil Twilight
Nautical Twilight
Astronomical Twilight
Moon
Length of Visible Light
Length of Day
Tomorrow will be .
, % of the Moon is Illuminated

Today's Extremes

State Highs State Lows

Community

WunderPhotos

Upload Photos

1,818,793 photos uploaded!

WunderBlogs® & News

Nearby

Air Quality

  Air Quality AQ Index Pollutant
Not available.

Snow Depth

Station Depth Elevation

Earthquake Activity

City Distance Mag. Time & Date
Minimum magnitude displayed is 2.5.

Coastal Water Temperatures

Place Temperature

Stations

Nearby Weather Stations

Station Location Temp. Windchill Dew Point Humidity Wind Precip. Elev Updated Type